Time;durP1;ratioP1;P1;durP2;ratioP2;P2;SDS_P1;SDS_P2;PMS_P1;PMS_P2;Temp;Humidity;BMP_temperature;BMP_pressure;BME280_temperature;BME280_humidity;BME280_pressure;Samples;Min_cycle;Max_cycle;Signal;HPM_P1;HPM_P2
2022/01/25 00:15:06;;;;;;;28.13;11.03;;;5.50;97.30;;;;;;5072148;28;20436;-85
2022/01/25 00:24:53;;;;;;;24.13;10.43;;;5.40;97.30;;;;;;5071871;28;20392;-85
2022/01/25 00:29:56;;;;;;;18.70;7.83;;;5.40;97.30;;;;;;5072268;28;20958;-84
2022/01/25 00:32:23;;;;;;;23.47;9.47;;;5.40;97.30;;;;;;5054075;28;20508;-85
2022/01/25 00:34:49;;;;;;;23.20;8.60;;;5.30;97.30;;;;;;5055553;28;20971;-85
2022/01/25 00:37:15;;;;;;;26.53;8.73;;;5.30;97.30;;;;;;5058044;28;20415;-85
2022/01/25 00:39:41;;;;;;;24.27;9.10;;;5.30;97.30;;;;;;5057490;28;20551;-85
2022/01/25 00:42:08;;;;;;;17.70;7.40;;;5.30;97.30;;;;;;5057742;28;20178;-85
2022/01/25 00:44:39;;;;;;;21.47;8.43;;;5.30;97.30;;;;;;5057447;28;20455;-85
2022/01/25 00:47:06;;;;;;;23.77;8.17;;;5.20;97.30;;;;;;5057751;28;20911;-85
2022/01/25 00:49:36;;;;;;;31.20;10.13;;;5.20;97.30;;;;;;5075656;28;20436;-85
2022/01/25 00:52:24;;;;;;;20.10;7.70;;;5.30;97.30;;;;;;5057873;28;20401;-84
2022/01/25 00:54:51;;;;;;;21.03;8.20;;;5.20;97.30;;;;;;5057416;28;20475;-85
2022/01/25 00:57:17;;;;;;;22.70;8.53;;;5.20;97.30;;;;;;5057454;28;20436;-85
2022/01/25 00:59:43;;;;;;;21.43;8.57;;;5.30;97.30;;;;;;5075412;28;21085;-85
2022/01/25 01:02:12;;;;;;;22.83;8.03;;;5.20;97.30;;;;;;5075382;28;20206;-85
2022/01/25 01:04:41;;;;;;;19.13;7.97;;;5.20;97.30;;;;;;5057556;28;20417;-85
2022/01/25 01:07:08;;;;;;;22.83;8.70;;;5.20;97.30;;;;;;5057100;28;20496;-85
2022/01/25 01:09:37;;;;;;;19.93;8.30;;;5.20;97.30;;;;;;5057208;28;20589;-85
2022/01/25 01:12:10;;;;;;;20.90;8.20;;;5.10;97.30;;;;;;5063192;28;20780;-85
2022/01/25 01:17:38;;;;;;;16.77;7.40;;;5.10;97.30;;;;;;5074448;28;20398;-85
2022/01/25 01:31:15;;;;;;;22.80;8.50;;;5.10;97.30;;;;;;5072014;28;20444;-85
2022/01/25 01:34:06;;;;;;;20.33;8.23;;;5.10;97.30;;;;;;5054028;28;20443;-84
2022/01/25 01:42:27;;;;;;;19.63;7.47;;;5.10;97.30;;;;;;5071927;28;20560;-86
2022/01/25 01:45:06;;;;;;;18.43;7.23;;;5.10;97.30;;;;;;5072173;28;20938;-86
2022/01/25 01:47:44;;;;;;;25.40;7.67;;;5.10;97.30;;;;;;5056348;28;20937;-86
2022/01/25 01:50:15;;;;;;;15.00;7.37;;;5.10;97.30;;;;;;5074862;28;20433;-85
2022/01/25 01:52:41;;;;;;;21.13;7.40;;;5.00;97.30;;;;;;5074506;28;20476;-86
2022/01/25 01:55:08;;;;;;;18.37;6.90;;;5.00;97.30;;;;;;5056521;28;20583;-86
2022/01/25 01:57:34;;;;;;;17.47;7.50;;;5.00;97.30;;;;;;5059186;28;20171;-86
2022/01/25 02:00:00;;;;;;;17.17;6.70;;;4.90;97.30;;;;;;5060097;28;20430;-86
2022/01/25 02:02:25;;;;;;;20.03;8.30;;;4.90;97.30;;;;;;5056211;28;20404;-86
2022/01/25 02:04:51;;;;;;;15.73;7.27;;;4.90;97.30;;;;;;5056441;28;20258;-86
2022/01/25 02:07:16;;;;;;;16.90;6.83;;;4.90;97.30;;;;;;5056277;28;20167;-86
2022/01/25 02:09:42;;;;;;;14.97;6.47;;;4.90;97.30;;;;;;5056172;28;20722;-85
2022/01/25 02:12:08;;;;;;;16.03;7.60;;;4.90;97.30;;;;;;5055697;28;20224;-86
2022/01/25 02:14:36;;;;;;;14.33;7.70;;;4.80;97.30;;;;;;5055793;28;20182;-85
2022/01/25 02:17:36;;;;;;;20.67;7.87;;;4.80;97.30;;;;;;5056077;28;20178;-85
2022/01/25 02:22:48;;;;;;;15.33;6.60;;;4.80;97.30;;;;;;5073993;28;20381;-86
2022/01/25 02:25:13;;;;;;;16.73;6.13;;;4.80;97.30;;;;;;5055902;28;20406;-86
2022/01/25 02:27:39;;;;;;;14.57;7.07;;;4.80;97.30;;;;;;5072745;28;20596;-85
2022/01/25 02:30:05;;;;;;;14.50;5.90;;;4.70;97.30;;;;;;5073071;28;20201;-85
2022/01/25 02:32:30;;;;;;;15.67;7.63;;;4.70;97.30;;;;;;5056150;28;20206;-86
2022/01/25 02:34:56;;;;;;;20.10;7.33;;;4.70;97.30;;;;;;5075134;28;20988;-86
2022/01/25 02:37:21;;;;;;;17.80;7.00;;;4.70;97.30;;;;;;5066004;28;20225;-85
2022/01/25 02:39:47;;;;;;;23.43;7.57;;;4.70;97.30;;;;;;5076778;28;20291;-84
2022/01/25 02:42:15;;;;;;;20.60;8.47;;;4.70;97.30;;;;;;5055419;28;20183;-86
2022/01/25 02:44:42;;;;;;;19.77;7.47;;;4.70;97.30;;;;;;5055423;28;20179;-86
2022/01/25 02:49:52;;;;;;;20.07;8.00;;;4.70;97.30;;;;;;5073485;28;21220;-85
2022/01/25 02:52:17;;;;;;;22.67;7.33;;;4.70;97.30;;;;;;5055314;28;20524;-86
2022/01/25 02:54:43;;;;;;;17.87;7.03;;;4.70;97.30;;;;;;5055055;28;20286;-85
2022/01/25 02:57:08;;;;;;;18.87;8.40;;;4.70;97.30;;;;;;5054767;28;20199;-86
2022/01/25 02:59:35;;;;;;;21.43;7.63;;;4.70;97.30;;;;;;5072762;28;20320;-86
2022/01/25 03:02:00;;;;;;;16.53;7.50;;;4.70;97.30;;;;;;5055100;28;20583;-85
2022/01/25 03:04:26;;;;;;;17.30;7.23;;;4.70;97.30;;;;;;5054961;28;20492;-85
2022/01/25 03:06:51;;;;;;;15.17;6.77;;;4.70;97.30;;;;;;5071600;28;20258;-85
2022/01/25 03:09:17;;;;;;;16.83;6.33;;;4.70;97.30;;;;;;5073083;28;20202;-86
2022/01/25 03:11:46;;;;;;;18.93;6.87;;;4.70;97.30;;;;;;5072836;28;20167;-86
2022/01/25 03:14:12;;;;;;;16.80;7.57;;;4.70;97.30;;;;;;5055076;28;20190;-85
2022/01/25 03:17:03;;;;;;;13.57;6.30;;;4.70;97.30;;;;;;5072713;28;20441;-85
2022/01/25 03:22:13;;;;;;;13.33;6.00;;;4.70;97.30;;;;;;5072787;28;20416;-85
2022/01/25 03:24:39;;;;;;;15.23;5.57;;;4.70;97.30;;;;;;5054873;28;20419;-85
2022/01/25 03:27:04;;;;;;;16.40;6.30;;;4.60;97.30;;;;;;5054866;28;20502;-85
2022/01/25 03:29:30;;;;;;;13.83;6.30;;;4.60;97.30;;;;;;5054539;28;20694;-85
2022/01/25 03:31:55;;;;;;;9.70;5.40;;;4.60;97.30;;;;;;5054304;28;20175;-85
2022/01/25 03:34:21;;;;;;;12.30;5.80;;;4.60;97.30;;;;;;5054443;28;20182;-85
2022/01/25 03:36:47;;;;;;;15.23;6.37;;;4.60;97.30;;;;;;5054662;28;20240;-86
2022/01/25 03:39:13;;;;;;;10.70;5.67;;;4.60;97.30;;;;;;5053020;28;20242;-85
2022/01/25 03:41:38;;;;;;;13.30;7.07;;;4.60;97.30;;;;;;5055415;28;20583;-85
2022/01/25 03:44:04;;;;;;;14.80;6.00;;;4.60;97.30;;;;;;5054109;28;20405;-86
2022/01/25 03:51:41;;;;;;;13.90;6.87;;;4.50;97.30;;;;;;5072709;28;20443;-85
2022/01/25 03:54:07;;;;;;;13.73;6.60;;;4.50;97.30;;;;;;5054170;28;20417;-84
2022/01/25 03:56:33;;;;;;;17.80;6.63;;;4.50;97.30;;;;;;5054279;28;20830;-86
2022/01/25 03:58:59;;;;;;;14.30;6.10;;;4.50;97.30;;;;;;5071980;28;20496;-86
2022/01/25 04:01:24;;;;;;;14.40;6.63;;;4.50;97.30;;;;;;5054183;28;20171;-85
2022/01/25 04:04:06;;;;;;;12.80;5.70;;;4.50;97.30;;;;;;5072254;28;20167;-85
2022/01/25 04:06:33;;;;;;;15.57;7.43;;;4.50;97.30;;;;;;5053988;28;20155;-84
2022/01/25 04:09:02;;;;;;;15.20;6.97;;;4.50;97.30;;;;;;5072312;28;20954;-86
2022/01/25 04:11:28;;;;;;;15.63;6.43;;;4.50;97.30;;;;;;5058307;28;20911;-85
2022/01/25 04:13:56;;;;;;;12.60;6.87;;;4.50;97.30;;;;;;5058250;28;20401;-85
2022/01/25 04:16:27;;;;;;;13.60;7.20;;;4.40;97.30;;;;;;5058109;28;20245;-85
2022/01/25 04:19:05;;;;;;;13.83;6.60;;;4.50;97.30;;;;;;5058280;28;20764;-86
2022/01/25 04:26:43;;;;;;;14.50;7.13;;;4.50;97.30;;;;;;5075911;28;20389;-85
2022/01/25 04:29:10;;;;;;;17.40;6.60;;;4.40;97.30;;;;;;5057555;28;20431;-85
2022/01/25 04:31:36;;;;;;;17.00;7.53;;;4.40;97.30;;;;;;5075967;28;20267;-85
2022/01/25 04:34:13;;;;;;;18.80;7.07;;;4.40;97.30;;;;;;5058048;28;20437;-86
2022/01/25 04:50:08;;;;;;;16.53;7.40;;;4.40;97.30;;;;;;5075306;28;20957;-85
2022/01/25 04:52:44;;;;;;;16.30;6.93;;;4.40;97.30;;;;;;5057607;28;20443;-85
2022/01/25 04:55:19;;;;;;;13.80;6.70;;;4.40;97.30;;;;;;5057116;28;20448;-85
2022/01/25 04:57:55;;;;;;;17.90;7.33;;;4.40;97.30;;;;;;5057828;28;20396;-85
2022/01/25 05:00:22;;;;;;;19.83;6.63;;;4.40;97.30;;;;;;5057504;28;20421;-85
2022/01/25 05:02:53;;;;;;;17.43;7.60;;;4.40;97.30;;;;;;5075404;28;20404;-85
2022/01/25 05:10:45;;;;;;;17.47;7.30;;;4.30;97.30;;;;;;5075608;28;20440;-85
2022/01/25 05:16:05;;;;;;;12.37;6.80;;;4.40;97.30;;;;;;5075435;28;20452;-85
2022/01/25 05:18:47;;;;;;;17.83;6.70;;;4.30;97.30;;;;;;5057192;28;20408;-85
2022/01/25 05:24:16;;;;;;;21.80;7.97;;;4.30;97.30;;;;;;5012842;28;20419;-85
2022/01/25 05:26:42;;;;;;;17.93;7.27;;;4.40;97.30;;;;;;5013186;28;20511;-85
2022/01/25 05:29:08;;;;;;;17.70;7.40;;;4.40;97.30;;;;;;5035292;28;20207;-85
2022/01/25 05:31:34;;;;;;;15.77;6.63;;;4.40;97.30;;;;;;5056811;28;20266;-86
2022/01/25 05:34:00;;;;;;;16.03;6.73;;;4.40;97.30;;;;;;5059511;28;20414;-86
2022/01/25 05:36:25;;;;;;;17.13;7.13;;;4.40;97.30;;;;;;5078711;28;20485;-86
2022/01/25 05:38:51;;;;;;;18.00;7.63;;;4.30;97.30;;;;;;5076739;28;20535;-86
2022/01/25 05:41:17;;;;;;;20.80;8.20;;;4.30;97.30;;;;;;5076833;28;20194;-85
2022/01/25 05:46:40;;;;;;;19.37;7.77;;;4.30;97.30;;;;;;5094731;28;20181;-86
2022/01/25 05:49:05;;;;;;;17.93;7.20;;;4.20;97.30;;;;;;5076408;28;20408;-86
2022/01/25 05:51:31;;;;;;;25.63;8.20;;;4.20;97.30;;;;;;5079246;28;20516;-86
2022/01/25 05:53:56;;;;;;;20.20;7.67;;;4.20;97.30;;;;;;5096853;28;20179;-85
2022/01/25 05:56:22;;;;;;;17.30;7.53;;;4.20;97.30;;;;;;5076550;28;20285;-86
2022/01/25 05:58:47;;;;;;;20.20;7.30;;;4.10;97.30;;;;;;5076039;28;20171;-86
2022/01/25 06:01:13;;;;;;;19.33;7.43;;;4.10;97.30;;;;;;5076217;28;20224;-85
2022/01/25 06:03:41;;;;;;;21.53;7.73;;;4.00;97.30;;;;;;5076289;28;20163;-86
2022/01/25 06:06:07;;;;;;;17.20;7.70;;;4.00;97.30;;;;;;5076294;28;20216;-86
2022/01/25 06:08:32;;;;;;;22.93;7.60;;;4.00;97.30;;;;;;5076355;28;20888;-85
2022/01/25 06:10:58;;;;;;;18.23;7.47;;;4.00;97.30;;;;;;5075853;28;20194;-86
2022/01/25 06:13:23;;;;;;;19.73;8.00;;;4.00;97.30;;;;;;5076315;28;20181;-86
2022/01/25 06:15:49;;;;;;;22.03;8.43;;;4.00;97.30;;;;;;5094323;28;20534;-87
2022/01/25 06:18:14;;;;;;;22.00;8.47;;;4.00;97.30;;;;;;5076285;28;20215;-87
2022/01/25 06:20:40;;;;;;;25.80;8.53;;;4.00;97.30;;;;;;5075707;28;20707;-86
2022/01/25 06:23:05;;;;;;;21.50;9.83;;;3.90;97.30;;;;;;5076081;28;20163;-86
2022/01/25 06:25:30;;;;;;;17.43;7.80;;;3.90;97.30;;;;;;5075971;28;20261;-86
2022/01/25 06:27:56;;;;;;;19.03;8.33;;;4.00;97.30;;;;;;5076039;28;20174;-86
2022/01/25 06:30:22;;;;;;;22.50;8.97;;;4.00;97.30;;;;;;5075782;28;20194;-85
2022/01/25 06:32:48;;;;;;;24.23;8.30;;;4.00;97.30;;;;;;5075448;28;20175;-86
2022/01/25 06:35:15;;;;;;;24.00;8.97;;;4.10;97.30;;;;;;5085899;28;20467;-86
2022/01/25 06:37:41;;;;;;;26.23;9.00;;;4.10;97.30;;;;;;5055539;28;20191;-84
2022/01/25 06:40:08;;;;;;;24.17;9.53;;;4.10;97.30;;;;;;5054835;28;20512;-86
2022/01/25 06:42:35;;;;;;;26.20;9.27;;;4.10;97.30;;;;;;5072271;28;20528;-86
2022/01/25 06:45:06;;;;;;;20.30;9.27;;;4.20;97.30;;;;;;5054374;28;20412;-86
2022/01/25 06:47:31;;;;;;;20.40;9.23;;;4.20;97.30;;;;;;5072459;28;20395;-86
2022/01/25 06:49:57;;;;;;;20.80;8.17;;;4.20;97.30;;;;;;5054530;28;20444;-86
2022/01/25 06:52:23;;;;;;;17.73;7.47;;;4.20;97.30;;;;;;5072438;28;20171;-86
2022/01/25 06:54:50;;;;;;;20.43;7.60;;;4.20;97.30;;;;;;5072190;28;20206;-86
2022/01/25 06:57:15;;;;;;;20.53;8.53;;;4.10;97.30;;;;;;5054797;28;20401;-86
2022/01/25 06:59:41;;;;;;;19.97;8.83;;;4.10;97.30;;;;;;5054099;28;20437;-84
2022/01/25 07:02:08;;;;;;;20.27;9.20;;;4.10;97.30;;;;;;5054492;28;20298;-86
2022/01/25 07:04:34;;;;;;;19.07;7.17;;;4.00;97.30;;;;;;5055063;28;20621;-86
2022/01/25 07:06:59;;;;;;;24.90;8.70;;;4.00;97.30;;;;;;5054226;28;20409;-86
2022/01/25 07:09:25;;;;;;;22.30;7.70;;;4.00;97.30;;;;;;5072174;28;20637;-86
2022/01/25 07:11:50;;;;;;;17.40;7.20;;;4.00;97.30;;;;;;5054424;28;20178;-86
2022/01/25 07:14:16;;;;;;;23.20;7.97;;;4.00;97.30;;;;;;5054380;28;20170;-86
2022/01/25 07:16:42;;;;;;;20.87;9.60;;;4.00;97.30;;;;;;5071828;28;20187;-86
2022/01/25 07:19:07;;;;;;;22.50;8.70;;;4.00;97.30;;;;;;5054254;28;20930;-86
2022/01/25 07:21:33;;;;;;;23.83;8.10;;;3.90;97.30;;;;;;5054241;28;20225;-86
2022/01/25 07:23:59;;;;;;;24.37;9.93;;;3.90;97.30;;;;;;5071826;28;20602;-86
2022/01/25 07:26:24;;;;;;;19.00;6.80;;;3.90;97.30;;;;;;5053778;28;20163;-85
2022/01/25 07:28:50;;;;;;;23.43;8.80;;;3.90;97.30;;;;;;5053426;28;20508;-85
2022/01/25 07:31:15;;;;;;;22.03;8.97;;;3.90;97.30;;;;;;5046246;28;20252;-86
2022/01/25 07:33:41;;;;;;;23.90;8.77;;;4.00;97.30;;;;;;5052779;28;20563;-86
2022/01/25 07:36:06;;;;;;;26.27;9.90;;;4.00;97.30;;;;;;5052186;28;20211;-86
2022/01/25 07:38:32;;;;;;;27.40;9.70;;;4.00;97.30;;;;;;5069202;28;20193;-85
2022/01/25 07:40:58;;;;;;;27.77;9.80;;;4.00;97.30;;;;;;5033396;28;1030613;-86
2022/01/25 07:43:24;;;;;;;25.23;8.70;;;4.10;97.30;;;;;;5053131;28;20728;-86
2022/01/25 07:45:52;;;;;;;29.30;10.07;;;4.10;97.30;;;;;;5055380;28;20265;-85
2022/01/25 07:48:18;;;;;;;30.80;10.60;;;4.10;97.30;;;;;;5054941;28;20175;-83
2022/01/25 07:50:44;;;;;;;40.00;10.67;;;4.10;97.30;;;;;;5054160;28;20802;-86
2022/01/25 07:53:10;;;;;;;42.63;13.13;;;4.10;97.30;;;;;;5054531;28;20429;-85
2022/01/25 07:55:35;;;;;;;36.33;12.13;;;4.10;97.30;;;;;;5072183;28;20199;-85
2022/01/25 07:58:01;;;;;;;39.17;12.33;;;4.10;97.30;;;;;;5072374;28;20250;-85
2022/01/25 08:00:27;;;;;;;40.43;13.63;;;4.10;97.30;;;;;;5054090;28;20191;-85
2022/01/25 08:02:52;;;;;;;44.27;14.07;;;4.10;97.30;;;;;;5053988;28;20209;-85
2022/01/25 08:05:21;;;;;;;32.27;12.17;;;4.10;97.30;;;;;;5054170;28;20175;-86
2022/01/25 08:07:47;;;;;;;44.33;13.37;;;4.10;97.30;;;;;;5054259;28;20181;-85
2022/01/25 08:10:13;;;;;;;33.00;13.33;;;4.10;97.30;;;;;;5054516;28;20975;-85
2022/01/25 08:12:39;;;;;;;36.37;13.07;;;4.10;97.30;;;;;;5054310;28;20409;-85
2022/01/25 08:15:09;;;;;;;31.93;12.10;;;4.10;97.30;;;;;;5054232;28;20687;-85
2022/01/25 08:17:34;;;;;;;33.87;11.30;;;4.10;97.30;;;;;;5054521;28;20409;-86
2022/01/25 08:20:00;;;;;;;38.00;11.80;;;4.10;97.30;;;;;;5053930;28;20835;-85
2022/01/25 08:22:26;;;;;;;38.10;12.87;;;4.10;97.30;;;;;;5054026;28;20171;-86
2022/01/25 08:24:52;;;;;;;39.07;12.07;;;4.10;97.30;;;;;;5053831;28;20475;-85
2022/01/25 08:27:23;;;;;;;39.23;12.87;;;4.10;97.30;;;;;;5054672;28;20175;-86
2022/01/25 08:29:53;;;;;;;39.50;12.60;;;4.10;97.30;;;;;;5054256;28;20520;-85
2022/01/25 08:32:19;;;;;;;35.97;11.77;;;4.10;97.30;;;;;;5053861;28;20492;-85
2022/01/25 08:34:46;;;;;;;32.23;10.97;;;4.10;97.30;;;;;;5053607;28;20911;-86
2022/01/25 08:37:11;;;;;;;36.50;12.17;;;4.10;97.30;;;;;;5053945;28;20420;-85
2022/01/25 08:39:37;;;;;;;25.07;9.73;;;4.10;97.30;;;;;;5054461;28;20481;-86
2022/01/25 08:42:03;;;;;;;29.67;11.30;;;4.10;97.30;;;;;;5054457;28;20172;-85
2022/01/25 08:44:29;;;;;;;30.70;10.60;;;4.10;97.30;;;;;;5053911;28;20566;-85
2022/01/25 08:46:55;;;;;;;28.10;10.30;;;4.10;97.30;;;;;;5054411;28;20404;-86
2022/01/25 08:49:21;;;;;;;29.13;11.60;;;4.10;97.30;;;;;;5054804;28;20191;-85
2022/01/25 08:51:48;;;;;;;35.53;9.80;;;4.10;97.30;;;;;;5056820;28;20197;-85
2022/01/25 08:54:14;;;;;;;34.10;11.40;;;4.10;97.30;;;;;;5063254;28;20420;-86
2022/01/25 08:56:43;;;;;;;36.23;11.67;;;4.10;97.30;;;;;;5059620;28;20564;-86
2022/01/25 08:59:10;;;;;;;34.07;12.43;;;4.10;97.30;;;;;;5057489;28;20401;-86
2022/01/25 09:01:35;;;;;;;33.97;12.90;;;4.10;97.30;;;;;;5057211;28;20401;-85
2022/01/25 09:04:01;;;;;;;38.30;12.33;;;4.10;97.30;;;;;;5075378;28;20408;-85
2022/01/25 09:06:27;;;;;;;33.83;10.63;;;4.10;97.30;;;;;;5058383;28;20163;-86
2022/01/25 09:08:59;;;;;;;33.70;12.20;;;4.10;97.30;;;;;;5075941;28;20636;-85
2022/01/25 09:11:24;;;;;;;34.93;12.17;;;4.10;97.30;;;;;;5058678;28;20779;-85
2022/01/25 09:13:50;;;;;;;32.63;11.77;;;4.10;97.30;;;;;;5057618;28;20418;-86
2022/01/25 09:16:15;;;;;;;37.23;12.87;;;4.10;97.30;;;;;;5057422;28;20195;-85
2022/01/25 09:18:41;;;;;;;34.30;13.57;;;4.00;97.30;;;;;;5075215;28;20740;-85
2022/01/25 09:21:06;;;;;;;37.10;14.57;;;4.00;97.30;;;;;;5056655;28;20194;-85
2022/01/25 09:23:33;;;;;;;46.13;14.40;;;4.00;97.30;;;;;;5056836;28;20524;-85
2022/01/25 09:25:58;;;;;;;38.53;13.20;;;4.00;97.30;;;;;;5058221;28;20167;-85
2022/01/25 09:28:24;;;;;;;42.07;14.23;;;4.00;97.30;;;;;;5058086;28;20949;-85
2022/01/25 09:30:50;;;;;;;52.57;14.83;;;4.00;97.30;;;;;;5074854;28;20195;-85
2022/01/25 09:33:15;;;;;;;34.60;12.47;;;4.00;97.30;;;;;;5057637;28;20202;-84
2022/01/25 09:35:42;;;;;;;34.40;12.17;;;4.00;97.30;;;;;;5074344;28;20547;-87
2022/01/25 09:38:08;;;;;;;34.80;13.93;;;4.00;97.30;;;;;;5095611;28;20159;-85
2022/01/25 09:40:34;;;;;;;34.73;13.47;;;4.00;97.30;;;;;;5076795;28;20464;-87
2022/01/25 09:43:00;;;;;;;45.10;13.60;;;4.00;97.30;;;;;;5077022;28;20917;-86
2022/01/25 09:45:26;;;;;;;41.40;14.37;;;4.00;97.30;;;;;;5077510;28;20205;-87
2022/01/25 09:47:52;;;;;;;43.90;13.63;;;3.90;97.30;;;;;;5078187;28;20409;-86
2022/01/25 09:50:19;;;;;;;35.77;12.87;;;4.00;97.30;;;;;;5078123;28;20478;-86
2022/01/25 09:52:45;;;;;;;33.43;11.90;;;4.00;97.30;;;;;;5076867;28;20417;-87
2022/01/25 09:55:16;;;;;;;43.10;13.23;;;3.90;97.30;;;;;;5077296;28;21107;-86
2022/01/25 09:57:42;;;;;;;42.93;13.00;;;4.00;97.30;;;;;;5076396;28;20166;-86
2022/01/25 10:00:11;;;;;;;38.00;12.90;;;4.00;97.30;;;;;;5076868;28;20788;-86
2022/01/25 10:03:05;;;;;;;36.87;12.43;;;3.90;97.30;;;;;;5076255;28;20408;-86
2022/01/25 10:05:35;;;;;;;39.37;13.33;;;3.90;97.30;;;;;;5076417;28;20401;-86
2022/01/25 10:08:16;;;;;;;38.23;13.10;;;3.90;97.30;;;;;;5093195;28;20385;-86
2022/01/25 10:10:56;;;;;;;32.67;12.00;;;3.90;97.30;;;;;;5076281;28;20489;-86
2022/01/25 10:13:28;;;;;;;40.17;12.50;;;3.90;97.30;;;;;;5098632;28;20897;-87
2022/01/25 10:16:01;;;;;;;37.83;13.50;;;3.90;97.30;;;;;;5076119;28;20463;-86
2022/01/25 10:18:52;;;;;;;32.30;10.30;;;3.90;97.30;;;;;;5094166;28;20405;-87
2022/01/25 10:21:22;;;;;;;36.93;13.33;;;3.90;97.30;;;;;;5076030;28;20440;-86
2022/01/25 10:24:03;;;;;;;43.20;13.23;;;3.90;97.30;;;;;;5076289;28;20975;-86
2022/01/25 10:26:47;;;;;;;34.20;12.23;;;3.90;97.30;;;;;;5075961;28;20416;-87
2022/01/25 10:29:19;;;;;;;35.13;14.37;;;3.90;97.30;;;;;;5094240;28;20492;-86
2022/01/25 10:31:47;;;;;;;60.43;15.67;;;3.90;97.30;;;;;;5075758;28;20397;-86
2022/01/25 10:34:22;;;;;;;41.63;13.00;;;3.80;97.30;;;;;;5076019;28;20416;-86
2022/01/25 10:36:49;;;;;;;41.40;12.60;;;3.90;97.30;;;;;;5093811;28;20479;-86
2022/01/25 10:39:26;;;;;;;45.17;14.70;;;3.80;97.30;;;;;;5075392;28;20551;-86
2022/01/25 10:41:51;;;;;;;40.47;12.43;;;3.80;97.30;;;;;;5093783;28;20400;-86
2022/01/25 10:44:17;;;;;;;38.67;13.47;;;3.80;97.30;;;;;;5076901;28;20412;-86
2022/01/25 10:46:42;;;;;;;41.97;14.47;;;3.80;97.30;;;;;;5075487;28;20209;-86
2022/01/25 10:49:12;;;;;;;41.03;13.37;;;3.90;97.30;;;;;;5093460;28;20175;-86
2022/01/25 10:51:48;;;;;;;34.63;12.47;;;3.90;97.30;;;;;;5077401;28;20183;-86
2022/01/25 10:54:22;;;;;;;40.47;13.87;;;3.90;97.30;;;;;;5098101;28;20419;-86
2022/01/25 10:56:54;;;;;;;48.10;13.43;;;3.90;97.30;;;;;;5075724;28;20539;-86
2022/01/25 10:59:36;;;;;;;47.53;15.43;;;3.90;97.30;;;;;;5075353;28;20443;-86
2022/01/25 11:02:05;;;;;;;42.57;12.50;;;3.90;97.30;;;;;;5075468;28;20765;-86
2022/01/25 11:04:34;;;;;;;45.60;13.23;;;3.90;97.30;;;;;;5075394;28;20419;-86
2022/01/25 11:07:03;;;;;;;45.47;14.10;;;3.80;97.30;;;;;;5075832;28;20493;-86
2022/01/25 11:09:35;;;;;;;48.80;15.17;;;3.80;97.30;;;;;;5093291;28;20466;-86
2022/01/25 11:12:03;;;;;;;43.10;12.17;;;3.80;97.30;;;;;;5075000;28;20405;-86
2022/01/25 11:17:14;;;;;;;49.23;16.10;;;3.80;97.30;;;;;;5093461;28;20729;-86
2022/01/25 11:19:40;;;;;;;48.53;15.97;;;3.80;97.30;;;;;;5074797;28;20416;-86
2022/01/25 11:22:09;;;;;;;50.33;15.80;;;3.80;97.30;;;;;;5075307;28;20162;-86
2022/01/25 11:24:36;;;;;;;47.43;13.67;;;3.80;97.30;;;;;;5075138;28;20997;-86
2022/01/25 11:27:05;;;;;;;44.20;13.90;;;3.80;97.30;;;;;;5075731;28;20409;-86
2022/01/25 11:29:32;;;;;;;43.73;13.20;;;3.80;97.30;;;;;;5075136;28;20511;-86
2022/01/25 11:32:13;;;;;;;42.17;13.60;;;3.80;97.30;;;;;;5074408;28;20470;-86
2022/01/25 11:34:40;;;;;;;42.30;13.90;;;3.80;97.30;;;;;;5074395;28;20408;-86
2022/01/25 11:37:08;;;;;;;42.77;14.13;;;3.90;97.30;;;;;;5074736;28;20477;-86
2022/01/25 11:39:35;;;;;;;49.93;14.23;;;3.90;97.30;;;;;;5075547;28;20468;-86
2022/01/25 11:42:10;;;;;;;42.73;13.20;;;3.80;97.30;;;;;;5075227;28;20412;-86
2022/01/25 11:45:06;;;;;;;39.37;11.47;;;3.90;97.30;;;;;;5092552;28;20399;-86
2022/01/25 11:47:36;;;;;;;46.00;13.93;;;3.90;97.30;;;;;;5092790;28;20462;-86
2022/01/25 11:50:11;;;;;;;41.87;12.37;;;3.80;97.30;;;;;;5093098;28;20432;-87
2022/01/25 11:52:53;;;;;;;45.40;13.67;;;3.90;97.30;;;;;;5074219;28;20423;-86
2022/01/25 11:55:26;;;;;;;45.27;13.47;;;3.90;97.30;;;;;;5074508;28;20445;-86
2022/01/25 11:58:07;;;;;;;46.10;14.70;;;3.90;97.30;;;;;;5074151;28;20838;-86
2022/01/25 12:00:46;;;;;;;42.70;14.03;;;3.90;97.30;;;;;;5074291;28;20433;-86
2022/01/25 12:03:25;;;;;;;47.30;13.10;;;3.90;97.30;;;;;;5074187;28;20415;-86
2022/01/25 12:06:45;;;;;;;42.57;14.40;;;3.90;97.30;;;;;;5074323;28;20427;-87
2022/01/25 12:09:51;;;;;;;41.90;13.77;;;3.90;97.30;;;;;;5089153;28;20499;-86
2022/01/25 12:12:10;;;;;;;50.20;13.53;;;3.90;97.30;;;;;;5087090;28;20412;-86
2022/01/25 12:14:43;;;;;;;47.50;14.40;;;3.90;97.30;;;;;;5074993;28;20401;-86
2022/01/25 12:17:16;;;;;;;31.90;13.03;;;3.90;97.30;;;;;;5075972;28;20412;-86
2022/01/25 12:20:03;;;;;;;46.20;12.80;;;3.90;97.30;;;;;;5091972;28;20421;-86
2022/01/25 12:22:41;;;;;;;43.77;12.63;;;3.90;97.30;;;;;;5074254;28;20450;-87
2022/01/25 12:25:15;;;;;;;42.13;13.00;;;3.90;97.30;;;;;;5074257;28;20419;-86
2022/01/25 12:27:48;;;;;;;45.70;13.63;;;3.90;97.30;;;;;;5074252;28;20415;-86
2022/01/25 12:30:26;;;;;;;38.33;12.50;;;3.90;97.30;;;;;;5074504;28;20428;-86
2022/01/25 12:33:08;;;;;;;48.33;12.37;;;3.90;97.30;;;;;;5077712;28;20405;-85
2022/01/25 12:35:49;;;;;;;45.97;15.33;;;3.90;97.30;;;;;;5078111;28;20463;-86
2022/01/25 12:38:23;;;;;;;35.77;11.90;;;3.90;97.30;;;;;;5095999;28;20388;-86
2022/01/25 12:40:55;;;;;;;48.50;15.00;;;3.90;97.30;;;;;;5077487;28;20478;-87
2022/01/25 12:43:30;;;;;;;35.40;12.20;;;3.90;97.30;;;;;;5077882;28;20409;-86
2022/01/25 12:46:05;;;;;;;37.23;11.80;;;3.90;97.30;;;;;;5078136;28;20404;-86
2022/01/25 12:48:33;;;;;;;37.67;12.53;;;3.90;97.30;;;;;;5078011;28;20444;-85
2022/01/25 12:51:03;;;;;;;45.40;13.13;;;3.90;97.30;;;;;;5077525;28;20431;-86
2022/01/25 12:53:31;;;;;;;58.03;14.57;;;3.90;97.30;;;;;;5077820;28;20417;-86
2022/01/25 12:56:00;;;;;;;50.73;14.90;;;3.90;97.30;;;;;;5077581;28;20907;-86
2022/01/25 12:58:28;;;;;;;42.07;13.00;;;3.90;97.30;;;;;;5095599;28;20443;-86
2022/01/25 13:01:00;;;;;;;42.60;13.20;;;3.90;97.30;;;;;;5077468;28;20428;-86
2022/01/25 13:03:28;;;;;;;49.40;13.63;;;3.90;97.30;;;;;;5077222;28;20404;-86
2022/01/25 13:06:11;;;;;;;56.83;15.13;;;3.90;97.30;;;;;;5077480;28;20420;-86
2022/01/25 13:08:42;;;;;;;43.53;13.80;;;3.90;97.30;;;;;;5077304;28;20412;-86
2022/01/25 13:11:21;;;;;;;44.67;13.40;;;3.90;97.30;;;;;;5077306;28;20572;-86
2022/01/25 13:14:01;;;;;;;44.30;12.90;;;3.90;97.30;;;;;;5077479;28;20423;-87
2022/01/25 13:16:41;;;;;;;41.43;11.53;;;3.80;97.30;;;;;;5077237;28;21263;-86
2022/01/25 13:19:07;;;;;;;48.97;12.90;;;3.80;97.30;;;;;;5076908;28;21234;-86
2022/01/25 13:21:42;;;;;;;47.70;12.47;;;3.70;97.30;;;;;;5077346;28;20412;-86
2022/01/25 13:24:14;;;;;;;37.57;12.27;;;3.70;97.30;;;;;;5078115;28;20173;-86
2022/01/25 13:27:13;;;;;;;40.63;13.60;;;3.70;97.30;;;;;;5077330;28;20405;-86
2022/01/25 13:32:35;;;;;;;41.57;15.03;;;3.70;97.30;;;;;;5095587;28;21157;-86
2022/01/25 13:35:02;;;;;;;35.53;11.50;;;3.70;97.30;;;;;;5076847;28;20419;-86
2022/01/25 13:37:28;;;;;;;39.37;10.50;;;3.70;97.30;;;;;;5076776;28;20459;-86
2022/01/25 13:39:59;;;;;;;32.90;10.63;;;3.70;97.30;;;;;;5076121;28;20470;-86
2022/01/25 13:42:40;;;;;;;34.57;11.87;;;3.70;97.30;;;;;;5076602;28;20409;-86
2022/01/25 13:48:02;;;;;;;35.70;10.87;;;3.60;97.30;;;;;;5094979;28;20412;-87
2022/01/25 13:50:29;;;;;;;41.20;11.93;;;3.60;97.30;;;;;;5094415;28;20865;-85
2022/01/25 13:52:54;;;;;;;32.17;11.00;;;3.60;97.30;;;;;;5076670;28;20921;-86
2022/01/25 13:55:20;;;;;;;46.17;11.60;;;3.60;97.30;;;;;;5076878;28;20506;-86
2022/01/25 13:57:45;;;;;;;32.00;10.37;;;3.60;97.30;;;;;;5076510;28;20215;-86
2022/01/25 14:00:12;;;;;;;34.13;10.17;;;3.60;97.30;;;;;;5076207;28;20190;-86
2022/01/25 14:02:39;;;;;;;43.80;12.00;;;3.60;97.30;;;;;;5076381;28;20259;-86
2022/01/25 14:05:06;;;;;;;38.53;11.17;;;3.70;97.30;;;;;;5094573;28;20447;-86
2022/01/25 14:07:38;;;;;;;39.73;10.07;;;3.60;97.30;;;;;;5067603;28;20435;-87
2022/01/25 14:10:06;;;;;;;39.27;11.40;;;3.60;97.30;;;;;;5055788;28;20429;-87
2022/01/25 14:23:29;;;;;;;34.70;10.67;;;3.70;97.30;;;;;;5074118;28;20987;-87
2022/01/25 14:26:05;;;;;;;39.93;12.20;;;3.60;97.30;;;;;;5055893;28;20496;-87
2022/01/25 14:28:33;;;;;;;34.40;10.80;;;3.60;97.30;;;;;;5061409;28;20244;-87
2022/01/25 14:31:01;;;;;;;49.40;14.20;;;3.60;97.30;;;;;;5055827;28;20444;-86
2022/01/25 14:33:30;;;;;;;38.87;12.80;;;3.50;97.30;;;;;;5055569;28;20413;-87
2022/01/25 14:36:01;;;;;;;41.73;12.03;;;3.50;97.30;;;;;;5089389;28;20502;-87
2022/01/25 14:38:30;;;;;;;38.07;11.00;;;3.50;97.30;;;;;;5093295;28;20428;-86
2022/01/25 14:41:17;;;;;;;39.73;12.83;;;3.50;97.30;;;;;;5093033;28;20452;-87